createdAt,value
2019-01-19T00:01:37.512Z,9.73
2019-01-19T00:04:31.335Z,9.93
2019-01-19T00:07:15.152Z,9.23
2019-01-19T00:09:49.531Z,13.00
2019-01-19T00:12:36.171Z,14.27
2019-01-19T00:15:07.806Z,17.67
2019-01-19T00:17:42.310Z,19.03
2019-01-19T00:20:23.753Z,18.37
2019-01-19T00:23:07.415Z,16.47
2019-01-19T00:26:05.749Z,15.23
2019-01-19T00:28:39.933Z,19.50
2019-01-19T00:31:12.472Z,20.77
2019-01-19T00:34:03.572Z,22.10
2019-01-19T00:36:40.706Z,18.73
2019-01-19T00:39:18.245Z,16.83
2019-01-19T00:42:13.407Z,17.47
2019-01-19T00:44:53.878Z,16.30
2019-01-19T00:47:53.731Z,15.50
2019-01-19T00:50:40.296Z,17.63
2019-01-19T00:53:11.918Z,16.70
2019-01-19T00:56:02.702Z,17.47
2019-01-19T00:58:37.171Z,14.97
2019-01-19T01:01:26.460Z,16.93
2019-01-19T01:04:09.609Z,20.27
2019-01-19T01:07:12.462Z,17.47
2019-01-19T01:09:58.994Z,16.87
2019-01-19T01:12:45.738Z,17.87
2019-01-19T01:15:29.121Z,16.47
2019-01-19T01:18:01.120Z,17.10
2019-01-19T01:20:44.901Z,15.10
2019-01-19T01:23:26.084Z,13.87
2019-01-19T01:26:15.446Z,12.10
2019-01-19T01:29:21.688Z,11.07
2019-01-19T01:32:09.633Z,8.27
2019-01-19T01:34:52.833Z,12.10
2019-01-19T01:37:36.432Z,10.37
2019-01-19T01:40:30.606Z,7.30
2019-01-19T01:43:07.995Z,9.47
2019-01-19T01:46:03.538Z,7.07
2019-01-19T01:48:43.786Z,8.83
2019-01-19T01:51:24.594Z,6.90
2019-01-19T01:54:17.026Z,5.90
2019-01-19T01:56:45.610Z,9.50
2019-01-19T01:59:22.752Z,5.67
2019-01-19T02:02:12.411Z,6.80
2019-01-19T02:05:13.731Z,12.37
2019-01-19T02:08:00.263Z,7.97
2019-01-19T02:10:31.872Z,5.10
2019-01-19T02:13:30.046Z,6.47
2019-01-19T02:16:36.130Z,6.67
2019-01-19T02:19:19.433Z,5.77
2019-01-19T02:22:09.797Z,4.40
2019-01-19T02:24:47.011Z,6.93
2019-01-19T02:27:24.328Z,8.33
2019-01-19T02:29:55.979Z,4.73
2019-01-19T02:32:27.575Z,6.80
2019-01-19T02:35:14.073Z,6.27
2019-01-19T02:37:54.182Z,6.67
2019-01-19T02:40:37.586Z,4.90
2019-01-19T02:43:32.991Z,5.57
2019-01-19T02:46:04.639Z,6.97
2019-01-19T02:48:42.065Z,3.57
2019-01-19T02:51:28.662Z,6.73
2019-01-19T02:54:27.091Z,7.90
2019-01-19T02:57:16.020Z,9.63
2019-01-19T02:59:53.323Z,5.13
2019-01-19T03:02:31.322Z,7.53
2019-01-19T03:05:05.747Z,5.70
2019-01-19T03:07:37.382Z,6.47
2019-01-19T03:10:17.842Z,8.10
2019-01-19T03:13:11.756Z,6.17
2019-01-19T03:15:43.384Z,7.37
2019-01-19T03:18:32.918Z,7.20
2019-01-19T03:21:19.274Z,7.20
2019-01-19T03:24:01.202Z,6.93
2019-01-19T03:26:48.962Z,5.43
2019-01-19T03:29:29.320Z,6.80
2019-01-19T03:32:35.262Z,4.30
2019-01-19T03:35:24.532Z,9.37
2019-01-19T03:37:58.818Z,4.23
2019-01-19T03:40:45.071Z,5.73
2019-01-19T03:43:19.562Z,7.60
2019-01-19T03:45:56.892Z,5.83
2019-01-19T03:48:28.528Z,5.60
2019-01-19T03:51:00.140Z,5.40
2019-01-19T03:53:34.810Z,4.80
2019-01-19T03:56:18.037Z,6.60
2019-01-19T03:59:01.060Z,6.27
2019-01-19T04:02:03.764Z,5.90
2019-01-19T04:04:35.322Z,4.73
2019-01-19T04:07:06.942Z,6.50
2019-01-19T04:10:06.928Z,4.43
2019-01-19T04:12:47.348Z,5.27
2019-01-19T04:15:30.552Z,5.83
2019-01-19T04:18:08.086Z,5.87
2019-01-19T04:21:01.858Z,6.03
2019-01-19T04:23:30.858Z,5.47
2019-01-19T04:26:01.356Z,6.23
2019-01-19T04:28:30.011Z,7.37
2019-01-19T04:30:58.571Z,7.43
2019-01-19T04:33:27.212Z,4.13
2019-01-19T04:36:00.249Z,5.40
2019-01-19T04:38:28.999Z,5.33
2019-01-19T04:40:57.563Z,4.63
2019-01-19T04:43:28.769Z,7.97
2019-01-19T04:45:57.410Z,7.83
2019-01-19T04:48:26.027Z,5.83
2019-01-19T04:50:54.568Z,4.47
2019-01-19T04:53:23.152Z,6.23
2019-01-19T04:55:51.747Z,4.63
2019-01-19T04:58:20.294Z,4.67
2019-01-19T05:00:48.845Z,5.07
2019-01-19T05:03:17.324Z,6.30
2019-01-19T05:05:45.894Z,4.50
2019-01-19T05:08:14.447Z,5.87
2019-01-19T05:10:43.013Z,6.57
2019-01-19T05:13:11.555Z,6.30
2019-01-19T05:15:40.042Z,5.17
2019-01-19T05:18:08.867Z,6.77
2019-01-19T05:20:37.340Z,5.77
2019-01-19T05:23:05.976Z,5.57
2019-01-19T05:25:34.523Z,5.63
2019-01-19T05:28:03.139Z,6.07
2019-01-19T05:30:31.708Z,5.43
2019-01-19T05:33:00.242Z,6.50
2019-01-19T05:35:28.827Z,6.40
2019-01-19T05:37:57.358Z,5.57
2019-01-19T05:40:25.911Z,7.03
2019-01-19T05:42:57.227Z,5.13
2019-01-19T05:45:25.777Z,4.77
2019-01-19T05:47:54.388Z,7.20
2019-01-19T05:50:23.138Z,5.40
2019-01-19T05:52:51.664Z,6.00
2019-01-19T05:55:20.294Z,6.53
2019-01-19T05:57:48.851Z,5.30
2019-01-19T06:00:20.763Z,5.37
2019-01-19T06:02:51.045Z,6.33
2019-01-19T06:05:19.739Z,5.30
2019-01-19T06:07:48.332Z,6.37
2019-01-19T06:10:17.614Z,5.77
2019-01-19T06:12:47.486Z,4.47
2019-01-19T06:15:16.512Z,6.50
2019-01-19T06:17:45.152Z,5.67
2019-01-19T06:20:17.333Z,6.23
2019-01-19T06:22:46.003Z,5.57
2019-01-19T06:25:15.965Z,6.33
2019-01-19T06:27:44.546Z,4.93
2019-01-19T06:30:23.280Z,5.70
2019-01-19T06:32:54.833Z,5.03
2019-01-19T06:35:23.566Z,5.67
2019-01-19T06:37:52.498Z,6.17
2019-01-19T06:40:22.881Z,4.23
2019-01-19T06:42:54.388Z,5.17
2019-01-19T06:45:24.568Z,4.43
2019-01-19T06:47:55.928Z,5.23
2019-01-19T06:50:24.507Z,7.03
2019-01-19T06:52:53.072Z,5.97
2019-01-19T06:55:24.694Z,6.23
2019-01-19T06:57:53.298Z,8.33
2019-01-19T07:00:21.928Z,10.30
2019-01-19T07:02:50.509Z,8.50
2019-01-19T07:05:19.164Z,9.27
2019-01-19T07:07:47.802Z,10.07
2019-01-19T07:10:18.825Z,9.97
2019-01-19T07:12:47.443Z,10.07
2019-01-19T07:15:16.372Z,9.37
2019-01-19T07:17:45.009Z,9.27
2019-01-19T07:20:19.285Z,9.37
2019-01-19T07:22:47.872Z,9.90
2019-01-19T07:25:16.600Z,10.93
2019-01-19T07:27:45.187Z,7.23
2019-01-19T07:30:17.360Z,9.50
2019-01-19T07:32:46.940Z,9.30
2019-01-19T07:35:16.071Z,8.50
2019-01-19T07:37:44.710Z,10.77
2019-01-19T07:40:18.123Z,8.47
2019-01-19T07:42:48.786Z,9.70
2019-01-19T07:45:17.518Z,7.23
2019-01-19T07:47:46.323Z,8.87
2019-01-19T07:50:18.824Z,8.60
2019-01-19T07:52:48.983Z,6.57
2019-01-19T07:55:19.672Z,6.47
2019-01-19T07:57:52.512Z,7.17
2019-01-19T08:00:28.328Z,8.03
2019-01-19T08:02:59.996Z,7.60
2019-01-19T08:05:33.905Z,6.77
2019-01-19T08:08:05.382Z,7.83
2019-01-19T08:10:37.322Z,9.00
2019-01-19T08:13:05.953Z,9.03
2019-01-19T08:15:34.667Z,6.87
2019-01-19T08:18:03.282Z,7.53
2019-01-19T08:20:31.858Z,7.50
2019-01-19T08:23:03.111Z,9.60
2019-01-19T08:25:31.701Z,8.47
2019-01-19T08:28:02.845Z,8.90
2019-01-19T08:30:31.658Z,11.43
2019-01-19T08:33:00.273Z,6.53
2019-01-19T08:35:29.451Z,7.83
2019-01-19T08:37:58.084Z,7.40
2019-01-19T08:40:32.539Z,9.03
2019-01-19T08:43:08.727Z,6.47
2019-01-19T08:45:37.701Z,8.63
2019-01-19T08:48:06.599Z,8.43
2019-01-19T08:50:35.228Z,5.60
2019-01-19T08:53:06.794Z,5.97
2019-01-19T08:55:35.363Z,5.70
2019-01-19T08:58:04.107Z,7.23
2019-01-19T09:00:39.824Z,9.10
2019-01-19T09:03:09.918Z,9.40
2019-01-19T09:05:38.547Z,11.93
2019-01-19T09:08:07.206Z,8.03
2019-01-19T09:10:35.753Z,6.53
2019-01-19T09:13:04.286Z,5.40
2019-01-19T09:15:33.027Z,5.47
2019-01-19T09:18:01.692Z,6.83
2019-01-19T09:20:30.304Z,7.80
2019-01-19T09:23:01.962Z,5.27
2019-01-19T09:25:33.349Z,8.17
2019-01-19T09:28:01.952Z,8.63
2019-01-19T09:30:30.541Z,8.00
2019-01-19T09:33:02.384Z,7.47
2019-01-19T09:35:30.970Z,7.80
2019-01-19T09:38:00.649Z,9.60
2019-01-19T09:40:30.958Z,10.20
2019-01-19T09:42:59.588Z,5.07
2019-01-19T09:45:28.312Z,7.80
2019-01-19T09:47:57.385Z,5.90
2019-01-19T09:50:26.182Z,5.60
2019-01-19T09:52:54.810Z,7.00
2019-01-19T09:55:23.850Z,5.90
2019-01-19T09:57:52.411Z,5.53
2019-01-19T10:00:25.505Z,7.00
2019-01-19T10:02:54.162Z,6.77
2019-01-19T10:05:29.465Z,5.00
2019-01-19T10:07:58.171Z,6.53
2019-01-19T10:10:28.345Z,7.97
2019-01-19T10:12:57.049Z,6.80
2019-01-19T10:19:06.458Z,7.40
2019-01-19T10:21:35.714Z,6.23
2019-01-19T10:24:04.882Z,9.67
2019-01-19T10:26:34.085Z,6.03
2019-01-19T10:29:03.108Z,5.50
2019-01-19T10:34:02.908Z,5.87
2019-01-19T10:36:31.755Z,5.00
2019-01-19T10:39:00.856Z,5.33
2019-01-19T10:41:29.943Z,5.03
2019-01-19T10:44:01.825Z,3.87
2019-01-19T10:46:45.860Z,4.83
2019-01-19T10:49:14.696Z,5.17
2019-01-19T10:51:44.439Z,5.03
2019-01-19T10:54:16.600Z,6.53
2019-01-19T10:56:46.775Z,7.20
2019-01-19T10:59:15.624Z,8.77
2019-01-19T11:01:44.582Z,6.50
2019-01-19T11:04:13.410Z,6.13
2019-01-19T11:06:45.423Z,4.53
2019-01-19T11:09:19.842Z,3.70
2019-01-19T11:11:49.917Z,4.70
2019-01-19T11:14:33.680Z,4.10
2019-01-19T11:17:10.066Z,6.37
2019-01-19T11:22:10.235Z,5.40
2019-01-19T11:24:39.350Z,5.27
2019-01-19T11:27:08.600Z,7.10
2019-01-19T11:29:37.676Z,8.57
2019-01-19T11:32:06.514Z,7.93
2019-01-19T11:34:35.530Z,6.87
2019-01-19T11:37:07.063Z,5.83
2019-01-19T11:39:49.287Z,5.87
2019-01-19T11:42:18.377Z,7.23
2019-01-19T11:44:57.893Z,4.30
2019-01-19T11:47:37.389Z,5.80
2019-01-19T11:50:05.526Z,5.37
2019-01-19T11:52:34.504Z,4.90
2019-01-19T11:58:06.194Z,3.53
2019-01-19T12:00:41.304Z,4.07
2019-01-19T12:03:10.357Z,5.03
2019-01-19T12:05:39.900Z,4.83
2019-01-19T12:08:19.571Z,6.93
2019-01-19T12:10:44.248Z,6.27
2019-01-19T12:13:13.361Z,5.47
2019-01-19T12:15:44.361Z,5.40
2019-01-19T12:18:13.314Z,5.97
2019-01-19T12:20:43.541Z,6.33
2019-01-19T12:23:12.359Z,4.53
2019-01-19T12:25:41.540Z,6.73
2019-01-19T12:28:17.017Z,6.23
2019-01-19T12:30:47.684Z,5.40
2019-01-19T12:33:19.293Z,6.40
2019-01-19T12:35:48.318Z,5.13
2019-01-19T12:38:17.347Z,7.40
2019-01-19T12:40:48.840Z,4.43
2019-01-19T12:43:18.133Z,5.47
2019-01-19T12:45:51.431Z,5.97
2019-01-19T12:48:34.152Z,3.40
2019-01-19T12:51:03.055Z,5.97
2019-01-19T12:53:31.914Z,4.13
2019-01-19T12:56:06.825Z,5.83
2019-01-19T12:58:35.801Z,5.30
2019-01-19T13:01:05.232Z,7.63
2019-01-19T13:03:43.204Z,5.23
2019-01-19T13:06:34.667Z,4.83
2019-01-19T13:09:12.519Z,4.83
2019-01-19T13:11:47.317Z,4.20
2019-01-19T13:14:16.464Z,9.30
2019-01-19T13:17:07.633Z,4.93
2019-01-19T13:19:42.333Z,6.43
2019-01-19T13:22:37.937Z,3.27
2019-01-19T13:25:33.885Z,9.80
2019-01-19T13:28:23.732Z,4.13
2019-01-19T13:31:02.277Z,4.43
2019-01-19T13:34:02.347Z,3.27
2019-01-19T13:36:55.276Z,3.73
2019-01-19T13:39:47.998Z,3.30
2019-01-19T13:42:34.889Z,3.63
2019-01-19T13:45:24.504Z,4.40
2019-01-19T13:53:39.234Z,3.80
2019-01-19T13:56:16.752Z,1.80
2019-01-19T14:02:08.979Z,2.07
2019-01-19T14:04:47.359Z,3.40
2019-01-19T14:07:30.593Z,2.73
2019-01-19T14:10:20.169Z,4.93
2019-01-19T14:13:13.627Z,4.80
2019-01-19T14:15:56.465Z,2.43
2019-01-19T14:18:40.336Z,2.03
2019-01-19T14:21:31.475Z,2.80
2019-01-19T14:24:29.657Z,3.57
2019-01-19T14:27:22.292Z,3.80
2019-01-19T14:30:06.064Z,2.17
2019-01-19T14:33:01.657Z,2.03
2019-01-19T14:35:33.383Z,2.57
2019-01-19T14:38:16.605Z,2.53
2019-01-19T14:41:01.217Z,3.53
2019-01-19T14:43:40.729Z,1.90
2019-01-19T14:46:15.903Z,2.73
2019-01-19T14:48:56.646Z,4.23
2019-01-19T14:51:38.632Z,2.77
2019-01-19T14:54:16.556Z,6.53
2019-01-19T14:56:58.444Z,5.43
2019-01-19T14:59:30.429Z,2.30
2019-01-19T15:02:29.422Z,2.90
2019-01-19T15:05:20.461Z,4.20
2019-01-19T15:07:55.008Z,4.10
2019-01-19T15:10:45.240Z,5.73
2019-01-19T15:13:28.941Z,3.47
2019-01-19T15:16:12.457Z,5.13
2019-01-19T15:19:19.270Z,4.23
2019-01-19T15:21:47.860Z,3.53
2019-01-19T15:24:22.792Z,4.67
2019-01-19T15:27:29.169Z,4.47
2019-01-19T15:30:17.515Z,5.47
2019-01-19T15:32:58.081Z,6.50
2019-01-19T15:35:47.610Z,5.73
2019-01-19T15:38:34.276Z,5.07
2019-01-19T15:41:17.816Z,5.97
2019-01-19T15:44:04.834Z,5.60
2019-01-19T15:47:11.086Z,8.77
2019-01-19T15:50:32.053Z,6.77
2019-01-19T15:53:03.988Z,5.17
2019-01-19T15:56:03.882Z,6.10
2019-01-19T15:58:42.096Z,7.40
2019-01-19T16:01:42.685Z,8.20
2019-01-19T16:04:39.670Z,6.60
2019-01-19T16:10:10.340Z,7.57
2019-01-19T16:13:00.269Z,7.40
2019-01-19T16:16:06.546Z,4.70
2019-01-19T16:18:54.309Z,8.00
2019-01-19T16:21:53.237Z,6.73
2019-01-19T16:24:47.846Z,6.77
2019-01-19T16:27:46.458Z,8.63
2019-01-19T16:30:55.424Z,5.60
2019-01-19T16:33:27.446Z,7.37
2019-01-19T16:36:06.150Z,8.20
2019-01-19T16:38:54.455Z,8.07
2019-01-19T16:41:41.060Z,7.93
2019-01-19T16:44:18.946Z,12.33
2019-01-19T16:47:13.437Z,10.73
2019-01-19T16:49:51.051Z,9.30
2019-01-19T16:52:28.405Z,7.07
2019-01-19T16:55:19.654Z,9.20
2019-01-19T16:57:57.852Z,6.23
2019-01-19T17:00:52.388Z,12.60
2019-01-19T17:03:30.555Z,8.00
2019-01-19T17:06:27.753Z,6.47
2019-01-19T17:09:21.712Z,8.37
2019-01-19T17:12:08.529Z,7.60
2019-01-19T17:15:08.701Z,8.00
2019-01-19T17:20:44.406Z,8.27
2019-01-19T17:23:22.027Z,10.97
2019-01-19T17:25:56.849Z,7.70
2019-01-19T17:28:38.061Z,9.37
2019-01-19T17:31:15.943Z,10.90
2019-01-19T17:34:22.298Z,7.80
2019-01-19T17:37:14.711Z,9.13
2019-01-19T17:40:07.842Z,7.33
2019-01-19T17:42:51.595Z,11.00
2019-01-19T17:45:38.286Z,8.87
2019-01-19T17:48:32.366Z,9.63
2019-01-19T17:51:22.635Z,10.87
2019-01-19T17:54:03.488Z,8.77
2019-01-19T17:56:38.149Z,10.67
2019-01-19T18:02:32.822Z,9.30
2019-01-19T18:05:13.487Z,10.70
2019-01-19T18:08:00.421Z,12.73
2019-01-19T18:10:57.806Z,9.30
2019-01-19T18:13:50.405Z,9.70
2019-01-19T18:16:28.196Z,13.30
2019-01-19T18:19:03.182Z,11.20
2019-01-19T18:22:07.365Z,11.10
2019-01-19T18:24:44.894Z,12.60
2019-01-19T18:27:35.830Z,12.20
2019-01-19T18:30:39.519Z,13.57
2019-01-19T18:33:36.185Z,13.33
2019-01-19T18:36:19.961Z,11.57
2019-01-19T18:39:09.883Z,15.57
2019-01-19T18:41:46.137Z,15.27
2019-01-19T18:44:38.810Z,15.60
2019-01-19T18:47:24.113Z,15.20
2019-01-19T18:50:04.483Z,12.83
2019-01-19T18:52:47.873Z,15.10
2019-01-19T18:55:31.087Z,12.90
2019-01-19T18:58:11.797Z,14.67
2019-01-19T19:00:55.015Z,12.03
2019-01-19T19:03:29.454Z,14.30
2019-01-19T19:06:08.004Z,12.57
2019-01-19T19:08:51.839Z,15.40
2019-01-19T19:11:40.680Z,15.57
2019-01-19T19:14:28.843Z,14.07
2019-01-19T19:17:28.730Z,17.63
2019-01-19T19:20:02.984Z,16.27
2019-01-19T19:22:47.100Z,12.07
2019-01-19T19:25:36.523Z,11.40
2019-01-19T19:28:23.668Z,17.83
2019-01-19T19:31:10.328Z,15.90
2019-01-19T19:33:51.568Z,14.37
2019-01-19T19:36:44.169Z,13.30
2019-01-19T19:39:19.592Z,15.27
2019-01-19T19:41:58.877Z,15.90
2019-01-19T19:44:44.501Z,18.73
2019-01-19T19:47:38.564Z,16.60
2019-01-19T19:50:43.224Z,20.13
2019-01-19T19:53:11.901Z,13.50
2019-01-19T19:55:39.556Z,14.93
2019-01-19T19:58:08.124Z,16.53
2019-01-19T20:00:45.093Z,17.07
2019-01-19T20:03:13.995Z,16.17
2019-01-19T20:05:42.683Z,17.67
2019-01-19T20:08:11.457Z,15.27
2019-01-19T20:10:40.025Z,15.63
2019-01-19T20:13:09.862Z,19.17
2019-01-19T20:15:38.500Z,14.93
2019-01-19T20:18:07.350Z,15.57
2019-01-19T20:20:36.322Z,18.50
2019-01-19T20:23:09.574Z,16.60
2019-01-19T20:25:40.392Z,16.63
2019-01-19T20:28:08.887Z,18.73
2019-01-19T20:30:37.586Z,14.83
2019-01-19T20:33:06.255Z,14.13
2019-01-19T20:35:35.007Z,18.60
2019-01-19T20:38:03.561Z,16.97
2019-01-19T20:40:32.357Z,16.17
2019-01-19T20:43:00.965Z,15.00
2019-01-19T20:45:29.646Z,14.57
2019-01-19T20:47:58.357Z,18.20
2019-01-19T20:50:27.474Z,15.70
2019-01-19T20:52:56.092Z,15.47
2019-01-19T20:55:24.634Z,13.77
2019-01-19T20:57:57.897Z,15.53
2019-01-19T21:00:26.583Z,14.60
2019-01-19T21:02:55.157Z,13.77
2019-01-19T21:05:23.683Z,13.70
2019-01-19T21:07:56.114Z,14.83
2019-01-19T21:10:31.495Z,15.50
2019-01-19T21:12:55.536Z,17.40
2019-01-19T21:15:24.274Z,14.97
2019-01-19T21:17:55.914Z,18.10
2019-01-19T21:20:23.565Z,15.10
2019-01-19T21:22:52.113Z,16.77
2019-01-19T21:25:22.640Z,16.13
2019-01-19T21:27:51.254Z,17.50
2019-01-19T21:30:22.168Z,18.70
2019-01-19T21:32:52.388Z,14.27
2019-01-19T21:35:23.168Z,15.77
2019-01-19T21:37:53.418Z,14.73
2019-01-19T21:40:21.997Z,15.90
2019-01-19T21:42:54.667Z,15.13
2019-01-19T21:45:28.815Z,15.03
2019-01-19T21:47:59.998Z,15.07
2019-01-19T21:50:28.622Z,15.10
2019-01-19T21:52:57.250Z,18.97
2019-01-19T21:55:26.262Z,18.70
2019-01-19T21:57:55.270Z,14.90
2019-01-19T22:00:27.555Z,20.07
2019-01-19T22:02:56.242Z,16.40
2019-01-19T22:05:27.787Z,15.23
2019-01-19T22:07:56.601Z,15.30
2019-01-19T22:10:25.479Z,15.50
2019-01-19T22:13:00.718Z,14.83
2019-01-19T22:15:29.253Z,19.63
2019-01-19T22:18:00.932Z,15.77
2019-01-19T22:20:29.491Z,13.83
2019-01-19T22:22:58.042Z,14.13
2019-01-19T22:25:27.078Z,17.27
2019-01-19T22:27:55.642Z,18.73
2019-01-19T22:30:24.895Z,14.70
2019-01-19T22:32:55.182Z,14.80
2019-01-19T22:35:25.793Z,15.27
2019-01-19T22:37:54.347Z,17.80
2019-01-19T22:40:23.014Z,12.80
2019-01-19T22:42:52.858Z,14.87
2019-01-19T22:45:21.408Z,15.10
2019-01-19T22:47:50.074Z,16.87
2019-01-19T22:50:19.301Z,13.17
2019-01-19T22:52:49.372Z,14.00
2019-01-19T22:55:19.381Z,14.23
2019-01-19T22:57:48.496Z,15.23
2019-01-19T23:00:46.002Z,15.77
2019-01-19T23:03:15.903Z,15.90
2019-01-19T23:05:44.384Z,13.43
2019-01-19T23:08:12.964Z,12.53
2019-01-19T23:10:41.505Z,16.80
2019-01-19T23:13:10.065Z,14.80
2019-01-19T23:15:38.649Z,14.47
2019-01-19T23:18:07.255Z,14.63
2019-01-19T23:20:38.238Z,18.50
2019-01-19T23:23:06.822Z,15.97
2019-01-19T23:25:35.441Z,14.40
2019-01-19T23:28:07.118Z,13.53
2019-01-19T23:30:35.674Z,15.00
2019-01-19T23:33:04.299Z,14.77
2019-01-19T23:35:32.895Z,17.67
2019-01-19T23:38:01.517Z,17.57
2019-01-19T23:40:30.099Z,14.33
2019-01-19T23:42:58.663Z,14.10
2019-01-19T23:45:27.292Z,15.70
2019-01-19T23:47:55.838Z,17.43
2019-01-19T23:50:24.412Z,13.07
2019-01-19T23:52:53.024Z,14.93
2019-01-19T23:55:21.640Z,16.53
2019-01-19T23:57:50.240Z,19.60
